KDPA/DPA METAR and TAF weather

Enter ICAO airport designator
Station Type Date Time Source
KDPA METAR 2024/05/28 22:52 UTC NOAA

KDPA 282252Z 31009KT 10SM BKN090 17/13 A2998 RMK AO2 LTG DSNT NE AND SE RAE47 TSB2154E17 SLP150 P0013 T01720128


Station Type Date Time Source
KDPA Decoded METAR 2024/05/28 22:52 UTC NOAA

CHICAGO/WEST CH DUPAGE, IL, United States (KDPA) 41-54N 88-15W 230M
May 28, 2024 - 06:52 PM EDT / 2024.05.28 2252 UTC
Wind: from the NW (310 degrees) at 10 MPH (9 KT):0
Visibility: 10 mile(s):0
Sky conditions: mostly cloudy
Weather: Lightning observed
Precipitation last hour: 0.13 inches
Temperature: 63.0 F (17.2 C)
Dew Point: 55.0 F (12.8 C)
Relative Humidity: 75%
Pressure (altimeter): 29.98 in. Hg (1015 hPa)
ob: KDPA 282252Z 31009KT 10SM BKN090 17/13 A2998 RMK AO2 LTG DSNT NE AND SE RAE47 TSB2154E17 SLP150 P0013 T01720128
cycle: 23

Station Type Date Time Source
KDPA TAF 2024/05/28 21:59 UTC NOAA